createdAt,value
2023-01-19T00:00:02.989Z,836.41
2023-01-19T00:01:02.984Z,836.42
2023-01-19T00:02:02.965Z,836.42
2023-01-19T00:03:02.995Z,836.37
2023-01-19T00:04:02.951Z,836.49
2023-01-19T00:05:02.950Z,836.52
2023-01-19T00:06:03.019Z,836.49
2023-01-19T00:07:02.928Z,836.45
2023-01-19T00:08:03.326Z,836.47
2023-01-19T00:09:02.898Z,836.44
2023-01-19T00:10:02.881Z,836.50
2023-01-19T00:11:02.886Z,836.44
2023-01-19T00:12:02.859Z,836.50
2023-01-19T00:13:03.462Z,836.47
2023-01-19T00:14:02.843Z,836.56
2023-01-19T00:15:02.829Z,836.52
2023-01-19T00:16:02.994Z,836.48
2023-01-19T00:17:02.817Z,836.54
2023-01-19T00:18:02.797Z,836.55
2023-01-19T00:19:02.798Z,836.53
2023-01-19T00:20:02.781Z,836.50
2023-01-19T00:21:02.763Z,836.57
2023-01-19T00:22:02.759Z,836.55
2023-01-19T00:23:03.042Z,836.55
2023-01-19T00:24:02.750Z,836.58
2023-01-19T00:25:02.723Z,836.53
2023-01-19T00:26:02.716Z,836.58
2023-01-19T00:27:02.703Z,836.58
2023-01-19T00:28:02.711Z,836.65
2023-01-19T00:29:02.703Z,836.65
2023-01-19T00:30:02.681Z,836.60
2023-01-19T00:31:02.657Z,836.68
2023-01-19T00:32:02.652Z,836.67
2023-01-19T00:33:03.200Z,836.65
2023-01-19T00:34:02.630Z,836.65
2023-01-19T00:35:02.619Z,836.71
2023-01-19T00:36:02.627Z,836.70
2023-01-19T00:37:02.596Z,836.67
2023-01-19T00:38:02.594Z,836.68
2023-01-19T00:39:02.597Z,836.66
2023-01-19T00:40:02.576Z,836.73
2023-01-19T00:41:02.554Z,836.73
2023-01-19T00:42:02.557Z,836.70
2023-01-19T00:43:02.904Z,836.68
2023-01-19T00:44:02.539Z,836.74
2023-01-19T00:45:02.530Z,836.73
2023-01-19T00:46:02.575Z,836.77
2023-01-19T00:47:02.492Z,836.75
2023-01-19T00:48:02.495Z,836.73
2023-01-19T00:49:02.471Z,836.74
2023-01-19T00:50:02.475Z,836.80
2023-01-19T00:51:02.451Z,836.78
2023-01-19T00:52:02.448Z,836.79
2023-01-19T00:53:02.807Z,836.76
2023-01-19T00:54:02.432Z,836.75
2023-01-19T00:55:02.417Z,836.78
2023-01-19T00:56:02.411Z,836.80
2023-01-19T00:57:02.387Z,836.87
2023-01-19T00:58:02.385Z,836.86
2023-01-19T00:59:02.368Z,836.83
2023-01-19T01:00:02.483Z,836.89
2023-01-19T01:01:02.457Z,836.91
2023-01-19T01:02:02.677Z,836.92
2023-01-19T01:03:02.842Z,836.89
2023-01-19T01:04:02.322Z,836.97
2023-01-19T01:05:02.313Z,836.97
2023-01-19T01:06:02.424Z,836.95
2023-01-19T01:07:02.286Z,836.99
2023-01-19T01:08:02.280Z,837.00
2023-01-19T01:09:02.264Z,837.06
2023-01-19T01:10:02.256Z,837.01
2023-01-19T01:11:02.265Z,837.04
2023-01-19T01:12:02.270Z,837.07
2023-01-19T01:13:21.023Z,837.02
2023-01-19T01:14:03.213Z,837.09
2023-01-19T01:15:02.202Z,837.09
2023-01-19T01:16:02.194Z,837.04
2023-01-19T01:17:02.232Z,837.04
2023-01-19T01:18:02.198Z,837.02
2023-01-19T01:19:02.160Z,837.07
2023-01-19T01:20:02.155Z,836.99
2023-01-19T01:21:02.143Z,837.04
2023-01-19T01:22:02.144Z,837.01
2023-01-19T01:23:02.582Z,837.00
2023-01-19T01:24:02.131Z,837.06
2023-01-19T01:25:02.108Z,837.08
2023-01-19T01:26:02.091Z,837.08
2023-01-19T01:27:02.087Z,837.09
2023-01-19T01:28:02.071Z,837.11
2023-01-19T01:29:02.063Z,837.16
2023-01-19T01:30:02.081Z,837.14
2023-01-19T01:31:02.041Z,837.16
2023-01-19T01:32:02.027Z,837.16
2023-01-19T01:33:02.497Z,837.14
2023-01-19T01:34:02.007Z,837.21
2023-01-19T01:35:02.002Z,837.22
2023-01-19T01:36:02.005Z,837.22
2023-01-19T01:37:01.973Z,837.21
2023-01-19T01:38:01.969Z,837.22
2023-01-19T01:39:01.991Z,837.20
2023-01-19T01:40:01.955Z,837.17
2023-01-19T01:41:01.935Z,837.19
2023-01-19T01:42:01.945Z,837.21
2023-01-19T01:43:02.406Z,837.22
2023-01-19T01:44:01.979Z,837.23
2023-01-19T01:45:01.892Z,837.20
2023-01-19T01:46:01.959Z,837.21
2023-01-19T01:47:01.868Z,837.23
2023-01-19T01:48:01.872Z,837.23
2023-01-19T01:49:01.884Z,837.29
2023-01-19T01:50:01.839Z,837.26
2023-01-19T01:51:01.839Z,837.29
2023-01-19T01:52:01.824Z,837.27
2023-01-19T01:53:07.336Z,837.32
2023-01-19T01:54:02.811Z,837.32
2023-01-19T01:55:01.787Z,837.31
2023-01-19T01:56:01.780Z,837.31
2023-01-19T01:57:01.784Z,837.30
2023-01-19T01:58:01.764Z,837.29
2023-01-19T01:59:01.744Z,837.31
2023-01-19T02:00:01.749Z,837.31
2023-01-19T02:01:01.816Z,837.31
2023-01-19T02:02:01.841Z,837.37
2023-01-19T02:03:02.236Z,837.37
2023-01-19T02:04:01.696Z,837.32
2023-01-19T02:05:01.711Z,837.33
2023-01-19T02:06:01.694Z,837.35
2023-01-19T02:07:01.670Z,837.38
2023-01-19T02:08:01.655Z,837.33
2023-01-19T02:09:01.662Z,837.36
2023-01-19T02:10:01.635Z,837.40
2023-01-19T02:11:01.623Z,837.36
2023-01-19T02:12:01.629Z,837.32
2023-01-19T02:13:02.006Z,837.43
2023-01-19T02:14:01.602Z,837.39
2023-01-19T02:15:01.588Z,837.38
2023-01-19T02:16:01.605Z,837.40
2023-01-19T02:17:01.616Z,837.36
2023-01-19T02:18:01.559Z,837.37
2023-01-19T02:19:01.542Z,837.36
2023-01-19T02:20:01.573Z,837.31
2023-01-19T02:21:01.576Z,837.39
2023-01-19T02:22:01.505Z,837.39
2023-01-19T02:23:01.996Z,837.45
2023-01-19T02:24:01.499Z,837.47
2023-01-19T02:25:01.488Z,837.53
2023-01-19T02:26:01.465Z,837.54
2023-01-19T02:27:01.460Z,837.52
2023-01-19T02:28:01.447Z,837.52
2023-01-19T02:29:01.435Z,837.49
2023-01-19T02:30:01.480Z,837.51
2023-01-19T02:31:01.559Z,837.51
2023-01-19T02:32:01.401Z,837.50
2023-01-19T02:33:01.927Z,837.50
2023-01-19T02:34:01.382Z,837.48
2023-01-19T02:35:01.377Z,837.46
2023-01-19T02:36:01.380Z,837.50
2023-01-19T02:37:01.385Z,837.47
2023-01-19T02:38:01.344Z,837.43
2023-01-19T02:39:01.331Z,837.43
2023-01-19T02:40:01.330Z,837.43
2023-01-19T02:41:01.321Z,837.43
2023-01-19T02:42:01.309Z,837.44
2023-01-19T02:43:01.909Z,837.45
2023-01-19T02:44:01.286Z,837.45
2023-01-19T02:45:01.285Z,837.44
2023-01-19T02:46:01.289Z,837.45
2023-01-19T02:47:01.266Z,837.45
2023-01-19T02:48:01.251Z,837.46
2023-01-19T02:49:01.245Z,837.45
2023-01-19T02:50:01.219Z,837.43
2023-01-19T02:51:01.207Z,837.46
2023-01-19T02:52:01.239Z,837.49
2023-01-19T02:53:01.835Z,837.48
2023-01-19T02:54:01.215Z,837.45
2023-01-19T02:55:01.169Z,837.48
2023-01-19T02:56:01.157Z,837.43
2023-01-19T02:57:01.144Z,837.43
2023-01-19T02:58:01.137Z,837.46
2023-01-19T02:59:01.135Z,837.51
2023-01-19T03:00:01.132Z,837.46
2023-01-19T03:01:01.216Z,837.48
2023-01-19T03:02:01.225Z,837.50
2023-01-19T03:03:01.584Z,837.44
2023-01-19T03:04:01.089Z,837.49
2023-01-19T03:05:01.064Z,837.47
2023-01-19T03:06:01.059Z,837.49
2023-01-19T03:07:01.044Z,837.44
2023-01-19T03:08:01.039Z,837.49
2023-01-19T03:09:01.051Z,837.49
2023-01-19T03:10:01.005Z,837.50
2023-01-19T03:11:01.014Z,837.48
2023-01-19T03:12:00.996Z,837.47
2023-01-19T03:13:01.460Z,837.49
2023-01-19T03:14:01.987Z,837.46
2023-01-19T03:15:00.962Z,837.51
2023-01-19T03:16:01.028Z,837.45
2023-01-19T03:17:01.031Z,837.46
2023-01-19T03:18:00.932Z,837.50
2023-01-19T03:19:00.914Z,837.47
2023-01-19T03:20:00.911Z,837.50
2023-01-19T03:21:00.899Z,837.51
2023-01-19T03:22:00.886Z,837.48
2023-01-19T03:23:01.258Z,837.53
2023-01-19T03:24:00.871Z,837.46
2023-01-19T03:25:00.990Z,837.51
2023-01-19T03:26:00.863Z,837.53
2023-01-19T03:27:00.834Z,837.51
2023-01-19T03:28:00.828Z,837.53
2023-01-19T03:29:00.812Z,837.51
2023-01-19T03:30:00.831Z,837.55
2023-01-19T03:31:00.806Z,837.53
2023-01-19T03:32:00.775Z,837.51
2023-01-19T03:33:01.228Z,837.50
2023-01-19T03:34:00.782Z,837.53
2023-01-19T03:35:00.747Z,837.49
2023-01-19T03:36:00.749Z,837.48
2023-01-19T03:37:00.742Z,837.50
2023-01-19T03:38:00.714Z,837.53
2023-01-19T03:39:00.705Z,837.55
2023-01-19T03:40:08.243Z,837.56
2023-01-19T03:41:08.214Z,837.50
2023-01-19T03:42:00.678Z,837.55
2023-01-19T03:43:01.044Z,837.56
2023-01-19T03:44:00.656Z,837.52
2023-01-19T03:45:00.650Z,837.54
2023-01-19T03:46:08.181Z,837.52
2023-01-19T03:47:00.623Z,837.53
2023-01-19T03:48:08.156Z,837.51
2023-01-19T03:49:00.603Z,837.47
2023-01-19T03:50:00.588Z,837.50
2023-01-19T03:51:00.579Z,837.48
2023-01-19T03:52:00.567Z,837.46
2023-01-19T03:53:00.920Z,837.52
2023-01-19T03:54:00.547Z,837.52
2023-01-19T03:55:00.539Z,837.54
2023-01-19T03:56:00.566Z,837.45
2023-01-19T03:57:00.520Z,837.50
2023-01-19T03:58:00.509Z,837.53
2023-01-19T03:59:00.510Z,837.54
2023-01-19T04:00:00.504Z,837.56
2023-01-19T04:01:00.635Z,837.54
2023-01-19T04:02:00.583Z,837.57
2023-01-19T04:03:00.958Z,837.55
2023-01-19T04:04:00.443Z,837.58
2023-01-19T04:05:00.432Z,837.54
2023-01-19T04:06:00.525Z,837.63
2023-01-19T04:07:00.425Z,837.58
2023-01-19T04:08:00.397Z,837.53
2023-01-19T04:09:00.389Z,837.51
2023-01-19T04:10:00.379Z,837.50
2023-01-19T04:11:00.388Z,837.54
2023-01-19T04:12:00.391Z,837.51
2023-01-19T04:13:00.876Z,837.54
2023-01-19T04:14:00.341Z,837.54
2023-01-19T04:15:00.333Z,837.51
2023-01-19T04:16:00.341Z,837.57
2023-01-19T04:17:00.325Z,837.57
2023-01-19T04:18:00.308Z,837.56
2023-01-19T04:19:00.312Z,837.56
2023-01-19T04:20:00.274Z,837.58
2023-01-19T04:21:00.265Z,837.53
2023-01-19T04:22:00.249Z,837.59
2023-01-19T04:23:00.685Z,837.63
2023-01-19T04:24:00.241Z,837.63
2023-01-19T04:25:00.246Z,837.67
2023-01-19T04:26:00.213Z,837.64
2023-01-19T04:27:00.199Z,837.65
2023-01-19T04:28:00.235Z,837.67
2023-01-19T04:29:00.199Z,837.64
2023-01-19T04:30:00.170Z,837.67
2023-01-19T04:31:00.206Z,837.68
2023-01-19T04:32:00.146Z,837.68
2023-01-19T04:33:00.538Z,837.70
2023-01-19T04:34:00.161Z,837.72
2023-01-19T04:35:00.155Z,837.73
2023-01-19T04:36:00.137Z,837.75
2023-01-19T04:37:00.115Z,837.75
2023-01-19T04:38:00.128Z,837.81
2023-01-19T04:39:00.095Z,837.81
2023-01-19T04:40:00.105Z,837.84
2023-01-19T04:41:00.064Z,837.82
2023-01-19T04:42:00.041Z,837.87
2023-01-19T04:43:00.457Z,837.85
2023-01-19T04:44:00.057Z,837.83
2023-01-19T04:45:00.010Z,837.84
2023-01-19T04:46:00.024Z,837.86
2023-01-19T04:46:59.993Z,837.86
2023-01-19T04:47:59.983Z,837.84
2023-01-19T04:48:59.987Z,837.87
2023-01-19T04:49:59.961Z,837.86
2023-01-19T04:50:59.952Z,837.87
2023-01-19T04:51:59.947Z,837.86
2023-01-19T04:53:00.282Z,837.83
2023-01-19T04:53:59.947Z,837.85
2023-01-19T04:54:59.920Z,837.86
2023-01-19T04:55:59.891Z,837.92
2023-01-19T04:56:59.887Z,837.89
2023-01-19T04:57:59.909Z,837.90
2023-01-19T04:58:59.867Z,837.92
2023-01-19T04:59:59.882Z,837.95
2023-01-19T05:00:59.937Z,837.96
2023-01-19T05:01:59.896Z,837.97
2023-01-19T05:03:00.335Z,837.99
2023-01-19T05:03:59.815Z,837.99
2023-01-19T05:04:59.812Z,837.94
2023-01-19T05:05:59.793Z,838.01
2023-01-19T05:06:59.793Z,837.98
2023-01-19T05:07:59.777Z,837.99
2023-01-19T05:08:59.813Z,837.98
2023-01-19T05:09:59.777Z,837.97
2023-01-19T05:10:59.780Z,838.01
2023-01-19T05:11:59.783Z,837.99
2023-01-19T05:13:00.150Z,838.08
2023-01-19T05:13:59.716Z,838.00
2023-01-19T05:14:59.700Z,838.03
2023-01-19T05:15:59.717Z,838.01
2023-01-19T05:16:59.676Z,838.07
2023-01-19T05:17:59.672Z,838.05
2023-01-19T05:18:59.683Z,838.07
2023-01-19T05:19:59.642Z,837.98
2023-01-19T05:20:59.632Z,838.00
2023-01-19T05:21:59.617Z,838.04
2023-01-19T05:22:59.988Z,838.06
2023-01-19T05:23:59.612Z,837.96
2023-01-19T05:24:59.612Z,838.02
2023-01-19T05:25:59.576Z,838.08
2023-01-19T05:26:59.588Z,838.11
2023-01-19T05:27:59.558Z,838.11
2023-01-19T05:28:59.549Z,838.11
2023-01-19T05:29:59.544Z,838.18
2023-01-19T05:30:59.673Z,838.17
2023-01-19T05:31:59.673Z,838.17
2023-01-19T05:32:59.922Z,838.25
2023-01-19T05:33:59.515Z,838.20
2023-01-19T05:34:59.492Z,838.24
2023-01-19T05:35:59.473Z,838.28
2023-01-19T05:36:59.486Z,838.29
2023-01-19T05:37:59.449Z,838.32
2023-01-19T05:38:59.445Z,838.34
2023-01-19T05:39:59.448Z,838.39
2023-01-19T05:40:59.426Z,838.46
2023-01-19T05:41:59.410Z,838.40
2023-01-19T05:42:59.926Z,838.46
2023-01-19T05:43:59.387Z,838.39
2023-01-19T05:44:59.441Z,838.37
2023-01-19T05:45:59.367Z,838.41
2023-01-19T05:46:59.484Z,838.38
2023-01-19T05:47:59.369Z,838.41
2023-01-19T05:48:59.347Z,838.36
2023-01-19T05:49:59.339Z,838.39
2023-01-19T05:50:59.357Z,838.37
2023-01-19T05:51:59.305Z,838.38
2023-01-19T05:52:59.627Z,838.44
2023-01-19T05:53:59.283Z,838.43
2023-01-19T05:54:59.288Z,838.42
2023-01-19T05:55:59.267Z,838.48
2023-01-19T05:56:59.268Z,838.49
2023-01-19T05:57:59.243Z,838.49
2023-01-19T05:58:59.235Z,838.51
2023-01-19T05:59:59.236Z,838.45
2023-01-19T06:00:59.230Z,838.46
2023-01-19T06:01:59.218Z,838.49
2023-01-19T06:02:59.659Z,838.48
2023-01-19T06:03:59.197Z,838.49
2023-01-19T06:04:59.173Z,838.52
2023-01-19T06:05:59.173Z,838.52
2023-01-19T06:06:59.164Z,838.53
2023-01-19T06:07:59.137Z,838.51
2023-01-19T06:08:59.148Z,838.56
2023-01-19T06:09:59.120Z,838.52
2023-01-19T06:10:59.110Z,838.53
2023-01-19T06:11:59.100Z,838.55
2023-01-19T06:12:59.463Z,838.55
2023-01-19T06:13:59.089Z,838.52
2023-01-19T06:14:59.069Z,838.54
2023-01-19T06:15:59.094Z,838.54
2023-01-19T06:16:59.048Z,838.56
2023-01-19T06:17:59.034Z,838.55
2023-01-19T06:18:59.051Z,838.57
2023-01-19T06:19:59.047Z,838.58
2023-01-19T06:20:59.008Z,838.58
2023-01-19T06:21:59.000Z,838.58
2023-01-19T06:22:59.366Z,838.58
2023-01-19T06:23:58.969Z,838.58
2023-01-19T06:24:58.991Z,838.59
2023-01-19T06:25:58.950Z,838.63
2023-01-19T06:26:58.934Z,838.65
2023-01-19T06:27:58.940Z,838.63
2023-01-19T06:28:58.924Z,838.63
2023-01-19T06:29:58.908Z,838.64
2023-01-19T06:30:58.902Z,838.66
2023-01-19T06:31:58.964Z,838.67
2023-01-19T06:32:59.155Z,838.69
2023-01-19T06:33:58.900Z,838.66
2023-01-19T06:34:58.865Z,838.67
2023-01-19T06:35:58.874Z,838.66
2023-01-19T06:36:58.831Z,838.65
2023-01-19T06:37:58.821Z,838.68
2023-01-19T06:38:58.820Z,838.70
2023-01-19T06:39:58.811Z,838.67
2023-01-19T06:40:58.909Z,838.68
2023-01-19T06:41:58.781Z,838.67
2023-01-19T06:42:59.037Z,838.66
2023-01-19T06:43:58.772Z,838.66
2023-01-19T06:44:58.755Z,838.59
2023-01-19T06:45:58.818Z,838.62
2023-01-19T06:47:15.078Z,838.64
2023-01-19T06:47:59.719Z,838.60
2023-01-19T06:48:58.702Z,838.65
2023-01-19T06:49:58.698Z,838.62
2023-01-19T06:50:59.889Z,838.65
2023-01-19T06:51:58.702Z,838.67
2023-01-19T06:52:59.102Z,838.70
2023-01-19T06:53:58.654Z,838.73
2023-01-19T06:54:58.643Z,838.76
2023-01-19T06:55:58.635Z,838.77
2023-01-19T06:56:58.630Z,838.79
2023-01-19T06:57:58.611Z,838.79
2023-01-19T06:58:58.610Z,838.83
2023-01-19T06:59:58.589Z,838.84
2023-01-19T07:00:58.698Z,838.83
2023-01-19T07:01:58.799Z,838.88
2023-01-19T07:02:59.146Z,838.88
2023-01-19T07:03:58.552Z,838.86
2023-01-19T07:04:58.551Z,838.87
2023-01-19T07:05:58.532Z,838.88
2023-01-19T07:06:58.515Z,838.91
2023-01-19T07:07:58.534Z,838.88
2023-01-19T07:08:58.505Z,838.90
2023-01-19T07:09:58.489Z,838.92
2023-01-19T07:11:25.038Z,838.93
2023-01-19T07:11:59.474Z,838.92
2023-01-19T07:12:59.057Z,838.92
2023-01-19T07:13:58.460Z,839.00
2023-01-19T07:14:58.539Z,838.95
2023-01-19T07:15:58.429Z,838.93
2023-01-19T07:16:58.473Z,838.95
2023-01-19T07:17:58.402Z,838.96
2023-01-19T07:18:58.393Z,839.01
2023-01-19T07:19:58.385Z,839.02
2023-01-19T07:20:58.380Z,839.03
2023-01-19T07:21:58.384Z,839.12
2023-01-19T07:22:59.020Z,839.11
2023-01-19T07:23:58.389Z,839.13
2023-01-19T07:24:58.355Z,839.17
2023-01-19T07:25:58.321Z,839.24
2023-01-19T07:26:58.312Z,839.23
2023-01-19T07:27:58.313Z,839.24
2023-01-19T07:28:58.306Z,839.25
2023-01-19T07:29:58.282Z,839.24
2023-01-19T07:30:58.338Z,839.23
2023-01-19T07:31:58.279Z,839.25
2023-01-19T07:32:58.936Z,839.25
2023-01-19T07:33:58.243Z,839.29
2023-01-19T07:34:58.244Z,839.34
2023-01-19T07:35:58.240Z,839.27
2023-01-19T07:36:58.205Z,839.32
2023-01-19T07:37:58.206Z,839.33
2023-01-19T07:38:58.295Z,839.31
2023-01-19T07:39:58.193Z,839.36
2023-01-19T07:40:58.178Z,839.34
2023-01-19T07:41:58.155Z,839.29
2023-01-19T07:42:58.716Z,839.30
2023-01-19T07:43:58.136Z,839.33
2023-01-19T07:44:58.155Z,839.34
2023-01-19T07:45:58.204Z,839.38
2023-01-19T07:46:58.116Z,839.39
2023-01-19T07:47:58.093Z,839.39
2023-01-19T07:48:58.084Z,839.33
2023-01-19T07:49:58.074Z,839.36
2023-01-19T07:50:58.069Z,839.36
2023-01-19T07:51:58.051Z,839.36
2023-01-19T07:52:58.363Z,839.36
2023-01-19T07:53:58.039Z,839.39
2023-01-19T07:54:58.020Z,839.42
2023-01-19T07:55:58.044Z,839.43
2023-01-19T07:56:57.995Z,839.46
2023-01-19T07:57:57.994Z,839.47
2023-01-19T07:58:57.994Z,839.49
2023-01-19T07:59:57.977Z,839.47
2023-01-19T08:00:58.094Z,839.53
2023-01-19T08:01:58.319Z,839.58
2023-01-19T08:02:58.150Z,839.59
2023-01-19T08:03:57.940Z,839.62
2023-01-19T08:04:57.940Z,839.62
2023-01-19T08:05:57.904Z,839.65
2023-01-19T08:06:57.895Z,839.64
2023-01-19T08:07:57.885Z,839.65
2023-01-19T08:08:57.872Z,839.63
2023-01-19T08:09:57.864Z,839.71
2023-01-19T08:10:57.880Z,839.68
2023-01-19T08:11:57.873Z,839.72
2023-01-19T08:12:57.886Z,839.68
2023-01-19T08:13:57.826Z,839.70
2023-01-19T08:14:57.809Z,839.69
2023-01-19T08:15:57.921Z,839.70
2023-01-19T08:16:57.808Z,839.73
2023-01-19T08:17:57.783Z,839.73
2023-01-19T08:18:57.769Z,839.74
2023-01-19T08:19:57.862Z,839.74
2023-01-19T08:20:57.744Z,839.74
2023-01-19T08:21:57.742Z,839.70
2023-01-19T08:22:58.303Z,839.71
2023-01-19T08:23:57.789Z,839.74
2023-01-19T08:24:57.709Z,839.72
2023-01-19T08:25:57.730Z,839.68
2023-01-19T08:26:57.686Z,839.66
2023-01-19T08:27:57.698Z,839.66
2023-01-19T08:28:57.674Z,839.63
2023-01-19T08:29:57.653Z,839.64
2023-01-19T08:30:57.983Z,839.69
2023-01-19T08:31:57.782Z,839.69
2023-01-19T08:32:57.662Z,839.61
2023-01-19T08:33:57.623Z,839.65
2023-01-19T08:34:57.610Z,839.64
2023-01-19T08:35:57.598Z,839.62
2023-01-19T08:36:57.589Z,839.60
2023-01-19T08:37:57.581Z,839.67
2023-01-19T08:38:57.556Z,839.65
2023-01-19T08:39:57.550Z,839.62
2023-01-19T08:40:57.566Z,839.65
2023-01-19T08:41:57.547Z,839.67
2023-01-19T08:42:57.536Z,839.66
2023-01-19T08:43:57.534Z,839.67
2023-01-19T08:44:58.516Z,839.69
2023-01-19T08:45:57.560Z,839.70
2023-01-19T08:46:57.492Z,839.74
2023-01-19T08:47:57.477Z,839.77
2023-01-19T08:48:57.474Z,839.77
2023-01-19T08:49:57.449Z,839.78
2023-01-19T08:50:57.431Z,839.81
2023-01-19T08:51:57.437Z,839.83
2023-01-19T08:52:57.572Z,839.82
2023-01-19T08:53:57.421Z,839.83
2023-01-19T08:54:57.388Z,839.90
2023-01-19T08:55:57.394Z,839.87
2023-01-19T08:56:57.369Z,839.92
2023-01-19T08:57:57.362Z,839.89
2023-01-19T08:59:08.784Z,839.97
2023-01-19T08:59:58.383Z,839.92
2023-01-19T09:00:57.344Z,839.93
2023-01-19T09:01:57.570Z,839.99
2023-01-19T09:02:57.363Z,839.89
2023-01-19T09:03:57.300Z,839.93
2023-01-19T09:04:57.299Z,839.97
2023-01-19T09:05:57.293Z,840.00
2023-01-19T09:06:57.264Z,839.91
2023-01-19T09:07:57.257Z,839.98
2023-01-19T09:08:57.244Z,839.98
2023-01-19T09:09:57.235Z,839.99
2023-01-19T09:10:57.254Z,840.05
2023-01-19T09:11:57.216Z,839.90
2023-01-19T09:12:57.202Z,839.93
2023-01-19T09:13:57.194Z,839.99
2023-01-19T09:14:57.184Z,839.97
2023-01-19T09:15:57.201Z,839.96
2023-01-19T09:16:57.180Z,840.00
2023-01-19T09:17:57.155Z,840.04
2023-01-19T09:18:57.140Z,840.00
2023-01-19T09:19:57.132Z,839.97
2023-01-19T09:20:57.122Z,839.97
2023-01-19T09:21:57.215Z,839.95
2023-01-19T09:22:57.112Z,839.93
2023-01-19T09:23:57.093Z,839.90
2023-01-19T09:24:57.087Z,839.89
2023-01-19T09:25:57.075Z,839.90
2023-01-19T09:26:57.067Z,839.88
2023-01-19T09:27:57.071Z,839.90
2023-01-19T09:28:57.055Z,839.90
2023-01-19T09:29:57.029Z,839.91
2023-01-19T09:30:57.241Z,839.88
2023-01-19T09:31:57.074Z,839.89
2023-01-19T09:32:59.326Z,839.92
2023-01-19T09:33:57.013Z,839.90
2023-01-19T09:34:56.985Z,839.92
2023-01-19T09:35:56.971Z,839.91
2023-01-19T09:36:56.952Z,839.92
2023-01-19T09:37:56.950Z,839.90
2023-01-19T09:38:56.931Z,839.91
2023-01-19T09:39:56.967Z,839.95
2023-01-19T09:40:56.933Z,839.89
2023-01-19T09:41:56.917Z,839.96
2023-01-19T09:42:56.900Z,839.92
2023-01-19T09:43:56.881Z,839.91
2023-01-19T09:44:56.869Z,839.94
2023-01-19T09:45:56.880Z,839.90
2023-01-19T09:46:56.874Z,839.90
2023-01-19T09:47:56.863Z,839.94
2023-01-19T09:48:56.849Z,839.91
2023-01-19T09:49:56.821Z,839.92
2023-01-19T09:50:56.844Z,839.87
2023-01-19T09:51:56.813Z,839.93
2023-01-19T09:52:56.809Z,839.93
2023-01-19T09:53:56.834Z,839.93
2023-01-19T09:54:56.772Z,839.91
2023-01-19T09:55:56.776Z,839.98
2023-01-19T09:56:56.744Z,839.95
2023-01-19T09:57:56.745Z,839.99
2023-01-19T09:58:56.736Z,839.99
2023-01-19T09:59:56.715Z,839.96
2023-01-19T10:00:56.856Z,840.01
2023-01-19T10:01:56.763Z,840.01
2023-01-19T10:02:56.719Z,840.05
2023-01-19T10:03:56.702Z,840.00
2023-01-19T10:04:56.683Z,840.01
2023-01-19T10:05:56.671Z,840.00
2023-01-19T10:06:56.646Z,840.02
2023-01-19T10:07:56.635Z,839.97
2023-01-19T10:08:56.621Z,840.00
2023-01-19T10:09:56.611Z,839.97
2023-01-19T10:10:56.614Z,840.00
2023-01-19T10:11:56.603Z,839.98
2023-01-19T10:12:56.578Z,839.95
2023-01-19T10:13:56.579Z,839.98
2023-01-19T10:14:56.558Z,839.97
2023-01-19T10:15:56.560Z,839.95
2023-01-19T10:16:56.553Z,840.00
2023-01-19T10:17:56.556Z,839.96
2023-01-19T10:18:56.525Z,839.99
2023-01-19T10:19:56.539Z,840.01
2023-01-19T10:20:56.500Z,839.98
2023-01-19T10:21:56.499Z,839.98
2023-01-19T10:22:56.503Z,840.06
2023-01-19T10:23:56.489Z,840.02
2023-01-19T10:24:56.458Z,840.02
2023-01-19T10:25:56.522Z,840.05
2023-01-19T10:26:56.443Z,840.09
2023-01-19T10:27:56.543Z,840.08
2023-01-19T10:28:56.449Z,840.10
2023-01-19T10:29:56.438Z,840.10
2023-01-19T10:30:56.444Z,840.08
2023-01-19T10:31:56.413Z,840.09
2023-01-19T10:32:56.389Z,840.08
2023-01-19T10:33:56.401Z,840.10
2023-01-19T10:34:56.378Z,840.07
2023-01-19T10:35:56.367Z,840.08
2023-01-19T10:36:57.315Z,840.07
2023-01-19T10:38:03.331Z,840.13
2023-01-19T10:38:56.311Z,840.10
2023-01-19T10:39:56.312Z,840.13
2023-01-19T10:40:56.299Z,840.07
2023-01-19T10:41:56.322Z,840.07
2023-01-19T10:42:56.283Z,840.09
2023-01-19T10:43:56.260Z,840.04
2023-01-19T10:44:56.279Z,840.07
2023-01-19T10:45:56.336Z,840.08
2023-01-19T10:46:56.251Z,840.12
2023-01-19T10:47:56.289Z,840.10
2023-01-19T10:48:56.214Z,840.10
2023-01-19T10:49:56.243Z,840.11
2023-01-19T10:50:56.226Z,840.06
2023-01-19T10:51:56.342Z,840.08
2023-01-19T10:52:56.214Z,840.11
2023-01-19T10:53:56.180Z,840.08
2023-01-19T10:54:56.165Z,840.08
2023-01-19T10:55:56.139Z,840.05
2023-01-19T10:56:56.167Z,840.05
2023-01-19T10:57:56.143Z,840.05
2023-01-19T10:58:56.172Z,840.05
2023-01-19T10:59:56.157Z,840.04
2023-01-19T11:00:56.236Z,840.05
2023-01-19T11:01:56.247Z,840.05
2023-01-19T11:02:56.318Z,840.02
2023-01-19T11:03:56.098Z,840.06
2023-01-19T11:04:56.152Z,840.07
2023-01-19T11:05:56.028Z,840.04
2023-01-19T11:06:56.021Z,840.07
2023-01-19T11:07:56.141Z,840.09
2023-01-19T11:08:56.000Z,840.06
2023-01-19T11:09:55.987Z,840.07
2023-01-19T11:10:56.012Z,840.04
2023-01-19T11:11:55.976Z,840.06
2023-01-19T11:12:55.962Z,840.08
2023-01-19T11:13:55.956Z,840.07
2023-01-19T11:14:55.935Z,840.03
2023-01-19T11:15:55.924Z,840.04
2023-01-19T11:16:55.939Z,840.02
2023-01-19T11:17:55.916Z,840.04
2023-01-19T11:18:55.897Z,839.96
2023-01-19T11:19:55.883Z,840.02
2023-01-19T11:20:55.876Z,839.96
2023-01-19T11:21:55.879Z,839.99
2023-01-19T11:22:55.865Z,839.99
2023-01-19T11:23:55.863Z,840.00
2023-01-19T11:24:55.834Z,839.98
2023-01-19T11:25:55.820Z,839.98
2023-01-19T11:26:55.811Z,840.01
2023-01-19T11:27:55.917Z,840.00
2023-01-19T11:28:55.811Z,839.98
2023-01-19T11:29:55.779Z,839.97
2023-01-19T11:30:55.771Z,839.96
2023-01-19T11:31:55.793Z,840.02
2023-01-19T11:32:55.750Z,840.03
2023-01-19T11:33:55.840Z,839.98
2023-01-19T11:34:55.742Z,840.02
2023-01-19T11:35:55.716Z,839.99
2023-01-19T11:36:55.710Z,840.00
2023-01-19T11:37:55.697Z,839.95
2023-01-19T11:38:55.689Z,839.98
2023-01-19T11:39:55.707Z,839.97
2023-01-19T11:40:55.681Z,839.97
2023-01-19T11:41:55.655Z,840.01
2023-01-19T11:42:55.663Z,840.00
2023-01-19T11:43:55.643Z,839.99
2023-01-19T11:44:55.637Z,840.03
2023-01-19T11:45:55.689Z,839.99
2023-01-19T11:46:55.621Z,840.03
2023-01-19T11:47:55.594Z,839.97
2023-01-19T11:48:55.585Z,840.00
2023-01-19T11:49:55.573Z,840.00
2023-01-19T11:50:55.586Z,840.02
2023-01-19T11:51:55.554Z,839.99
2023-01-19T11:52:55.562Z,840.00
2023-01-19T11:53:55.535Z,839.98
2023-01-19T11:54:55.524Z,839.90
2023-01-19T11:55:55.536Z,839.92
2023-01-19T11:56:55.522Z,839.89
2023-01-19T11:57:55.489Z,839.86
2023-01-19T11:58:55.497Z,839.85
2023-01-19T11:59:55.467Z,839.85
2023-01-19T12:00:55.499Z,839.87
2023-01-19T12:01:55.561Z,839.86
2023-01-19T12:02:55.452Z,839.86
2023-01-19T12:03:55.439Z,839.89
2023-01-19T12:04:55.433Z,839.95
2023-01-19T12:05:55.430Z,839.98
2023-01-19T12:06:55.412Z,839.97
2023-01-19T12:07:55.388Z,839.89
2023-01-19T12:08:55.379Z,839.93
2023-01-19T12:09:55.372Z,839.97
2023-01-19T12:10:55.371Z,839.94
2023-01-19T12:11:55.384Z,839.92
2023-01-19T12:12:55.348Z,839.92
2023-01-19T12:13:55.334Z,839.89
2023-01-19T12:14:55.319Z,839.91
2023-01-19T12:15:55.302Z,839.91
2023-01-19T12:16:55.307Z,839.87
2023-01-19T12:17:55.290Z,839.87
2023-01-19T12:18:55.286Z,839.87
2023-01-19T12:19:55.371Z,839.90
2023-01-19T12:20:55.255Z,839.84
2023-01-19T12:21:55.251Z,839.81
2023-01-19T12:22:55.242Z,839.82
2023-01-19T12:23:55.220Z,839.81
2023-01-19T12:24:55.232Z,839.79
2023-01-19T12:25:55.204Z,839.79
2023-01-19T12:26:55.193Z,839.77
2023-01-19T12:27:55.203Z,839.78